Fort Lewis, Washington
Current Conditions -  °F | °C
As of 2:58 AM on Wednesday 22 Oct 2014 (Local Time) from KGRF Reporting Station
Drizzle Drizzle  
Wind Chill: 57°   Ceiling: 3700
Heat Index: 57°   Visibility: 10mi
Dew Point: 49°   Wind: 13mph
Humidity: 74%   Direction: 140°SE
Pressure: 29.68"   Gusts: NA
Location:  47.04°N, 122.6°W
Report Text: KGRF 220958Z AUTO 14011KT 10SM DZ BKN037 OVC060 14/10 A2968 RMK AO2 RAB0912E0922 SLP054 P0000 T01400095 $
Loading
Personal Weather Stations






























Interactive Weather Map
Tropical Storm Tracking
New forecast layout! Learn more

10-Day Weather Forecast

Advertisements
Track Severe Weather on mobile